createdAt,value
2017-11-01T00:00:21.314Z,90.94
2017-11-01T00:01:31.632Z,92.08
2017-11-01T00:02:41.118Z,90.84
2017-11-01T00:03:50.558Z,91.51
2017-11-01T00:05:00.812Z,91.6
2017-11-01T00:06:10.719Z,92.65
2017-11-01T00:07:20.443Z,92.36
2017-11-01T00:08:31.324Z,91.79
2017-11-01T00:09:41.161Z,91.6
2017-11-01T00:10:50.507Z,91.22
2017-11-01T00:12:00.441Z,90.65
2017-11-01T00:13:11.101Z,90.46
2017-11-01T00:14:21.257Z,91.31
2017-11-01T00:15:31.336Z,90.65
2017-11-01T00:16:41.936Z,91.6
2017-11-01T00:17:51.767Z,90.56
2017-11-01T00:19:01.876Z,90.65
2017-11-01T00:20:11.883Z,91.7
2017-11-01T00:21:22.097Z,90.46
2017-11-01T00:22:32.631Z,91.13
2017-11-01T00:23:42.861Z,91.22
2017-11-01T00:24:53.058Z,91.13
2017-11-01T00:26:03.196Z,91.22
2017-11-01T00:27:13.775Z,91.31
2017-11-01T00:28:23.937Z,90.56
2017-11-01T00:29:33.954Z,91.31
2017-11-01T00:30:44.372Z,90.56
2017-11-01T00:31:54.167Z,91.13
2017-11-01T00:33:04.198Z,91.51
2017-11-01T00:34:13.612Z,91.31
2017-11-01T00:35:23.651Z,91.31
2017-11-01T00:36:33.654Z,90.65
2017-11-01T00:37:42.991Z,90.27
2017-11-01T00:38:53.401Z,90.46
2017-11-01T00:40:03.091Z,90.17
2017-11-01T00:41:12.431Z,90.84
2017-11-01T00:42:22.109Z,90.94
2017-11-01T00:43:31.812Z,90.84
2017-11-01T00:44:42.190Z,90.84
2017-11-01T00:45:51.901Z,91.6
2017-11-01T00:47:01.910Z,91.13
2017-11-01T00:48:11.248Z,90.27
2017-11-01T00:49:21.259Z,91.22
2017-11-01T00:50:30.936Z,91.79
2017-11-01T00:51:40.605Z,91.13
2017-11-01T00:52:50.288Z,91.03
2017-11-01T00:54:00.304Z,91.6
2017-11-01T00:55:09.651Z,91.89
2017-11-01T00:56:19.657Z,91.99
2017-11-01T00:57:29.667Z,92.08
2017-11-01T00:58:39.006Z,92.08
2017-11-01T00:59:49.011Z,91.79
2017-11-01T01:00:59.024Z,91.41
2017-11-01T01:02:09.037Z,91.41
2017-11-01T01:03:19.042Z,91.41
2017-11-01T01:04:29.387Z,91.7
2017-11-01T01:05:39.068Z,91.7
2017-11-01T01:06:49.079Z,91.79
2017-11-01T01:07:58.414Z,92.46
2017-11-01T01:09:08.093Z,91.51
2017-11-01T01:10:18.104Z,91.41
2017-11-01T01:11:27.447Z,92.08
2017-11-01T01:12:37.488Z,92.08
2017-11-01T01:13:47.158Z,92.46
2017-11-01T01:14:57.523Z,92.36
2017-11-01T01:16:07.197Z,92.46
2017-11-01T01:17:17.205Z,92.46
2017-11-01T01:18:26.544Z,93.03
2017-11-01T01:19:36.552Z,92.94
2017-11-01T01:20:46.576Z,91.79
2017-11-01T01:21:56.935Z,91.51
2017-11-01T01:23:07.278Z,91.79
2017-11-01T01:24:16.957Z,91.79
2017-11-01T01:25:26.297Z,91.41
2017-11-01T01:26:35.969Z,92.27
2017-11-01T01:27:45.307Z,92.08
2017-11-01T01:28:55.316Z,92.27
2017-11-01T01:30:04.986Z,92.94
2017-11-01T01:31:14.659Z,92.55
2017-11-01T01:32:23.997Z,92.65
2017-11-01T01:33:33.675Z,92.27
2017-11-01T01:34:43.023Z,91.41
2017-11-01T01:35:53.029Z,91.6
2017-11-01T01:37:02.369Z,90.94
2017-11-01T01:38:12.039Z,91.31
2017-11-01T01:39:22.375Z,91.51
2017-11-01T01:40:32.052Z,91.6
2017-11-01T01:41:41.395Z,92.18
2017-11-01T01:42:51.404Z,92.36
2017-11-01T01:44:01.411Z,92.27
2017-11-01T01:45:11.429Z,91.7
2017-11-01T01:46:21.099Z,91.41
2017-11-01T01:47:30.772Z,91.89
2017-11-01T01:48:40.775Z,91.41
2017-11-01T01:49:50.784Z,91.31
2017-11-01T01:51:00.455Z,91.03
2017-11-01T01:52:10.814Z,91.7
2017-11-01T01:53:20.826Z,91.6
2017-11-01T01:54:30.830Z,91.7
2017-11-01T01:55:40.500Z,91.51
2017-11-01T01:56:50.181Z,91.7
2017-11-01T01:57:59.516Z,90.56
2017-11-01T01:59:09.861Z,91.22
2017-11-01T02:00:19.864Z,90.46
2017-11-01T02:01:29.542Z,91.03
2017-11-01T02:02:39.879Z,91.03
2017-11-01T02:03:49.895Z,90.94
2017-11-01T02:04:59.236Z,91.31
2017-11-01T02:06:08.922Z,91.13
2017-11-01T02:07:19.287Z,91.31
2017-11-01T02:08:29.293Z,90.65
2017-11-01T02:09:39.302Z,91.13
2017-11-01T02:10:48.976Z,90.75
2017-11-01T02:11:58.980Z,90.5
2017-11-01T02:13:08.654Z,90.56
2017-11-01T02:14:17.995Z,90.36
2017-11-01T02:15:28.000Z,90.36
2017-11-01T02:16:38.012Z,90.46
2017-11-01T02:17:47.687Z,90.36
2017-11-01T02:18:57.691Z,89.98
2017-11-01T02:20:07.032Z,90.46
2017-11-01T02:21:16.699Z,90.84
2017-11-01T02:22:26.701Z,90.56
2017-11-01T02:23:36.371Z,90.65
2017-11-01T02:24:45.708Z,90.08
2017-11-01T02:25:55.048Z,90.84
2017-11-01T02:27:05.050Z,90.46
2017-11-01T02:28:15.067Z,90.46
2017-11-01T02:29:25.086Z,90.56
2017-11-01T02:30:35.095Z,90.65
2017-11-01T02:31:44.098Z,90.27
2017-11-01T02:32:53.436Z,90.36
2017-11-01T02:34:03.786Z,90.27
2017-11-01T02:35:13.122Z,90.65
2017-11-01T02:36:23.126Z,90.84
2017-11-01T02:37:33.161Z,91.31
2017-11-01T02:38:42.161Z,91.41
2017-11-01T02:39:51.842Z,91.31
2017-11-01T02:41:02.192Z,91.31
2017-11-01T02:42:43.943Z,90.75
2017-11-01T02:43:53.985Z,91.6
2017-11-01T02:45:04.010Z,90.65
2017-11-01T02:46:13.704Z,90.84
2017-11-01T02:47:24.069Z,91.31
2017-11-01T02:48:33.749Z,91.51
2017-11-01T02:49:43.790Z,91.7
2017-11-01T02:50:53.474Z,91.51
2017-11-01T02:52:02.815Z,91.99
2017-11-01T02:53:12.498Z,92.08
2017-11-01T02:54:22.510Z,91.79
2017-11-01T02:55:32.531Z,92.18
2017-11-01T02:56:41.873Z,92.55
2017-11-01T02:57:51.560Z,92.46
2017-11-01T02:59:01.911Z,92.36
2017-11-01T03:00:11.595Z,92.46
2017-11-01T03:01:21.613Z,92.08
2017-11-01T03:02:31.665Z,92.18
2017-11-01T03:03:41.683Z,92.65
2017-11-01T03:04:51.358Z,92.46
2017-11-01T03:06:01.383Z,92.55
2017-11-01T03:07:11.736Z,92.27
2017-11-01T03:08:21.761Z,92.18
2017-11-01T03:09:31.437Z,92.36
2017-11-01T03:10:40.779Z,92.36
2017-11-01T03:11:50.791Z,92.36
2017-11-01T03:13:00.466Z,92.36
2017-11-01T03:14:10.148Z,92.27
2017-11-01T03:15:20.160Z,92.27
2017-11-01T03:16:29.843Z,92.74
2017-11-01T03:17:38.846Z,92.65
2017-11-01T03:18:48.531Z,92.84
2017-11-01T03:19:57.874Z,92.65
2017-11-01T03:21:07.894Z,92.65
2017-11-01T03:22:17.625Z,92.65
2017-11-01T03:23:28.090Z,92.36
2017-11-01T03:24:37.465Z,93.22
2017-11-01T03:25:47.820Z,93.03
2017-11-01T03:26:57.832Z,93.79
2017-11-01T03:28:08.170Z,93.32
2017-11-01T03:29:18.187Z,93.7
2017-11-01T03:30:28.219Z,93.6
2017-11-01T03:31:37.567Z,93.13
2017-11-01T03:32:47.574Z,93.32
2017-11-01T03:33:57.589Z,93.79
2017-11-01T03:35:06.928Z,93.03
2017-11-01T03:36:17.284Z,93.22
2017-11-01T03:37:26.624Z,93.13
2017-11-01T03:38:36.633Z,93.51
2017-11-01T03:39:47.004Z,93.7
2017-11-01T03:40:57.011Z,92.98
2017-11-01T03:42:07.026Z,93.03
2017-11-01T03:43:17.073Z,93.27
2017-11-01T03:44:26.748Z,92.84
2017-11-01T03:45:36.421Z,93.13
2017-11-01T03:46:46.092Z,93.41
2017-11-01T03:47:56.113Z,93.13
2017-11-01T03:49:05.451Z,93.32
2017-11-01T03:50:15.799Z,93.7
2017-11-01T03:51:25.817Z,93.6
2017-11-01T03:52:35.830Z,93.79
2017-11-01T03:53:45.837Z,94.08
2017-11-01T03:54:55.186Z,93.51
2017-11-01T03:56:04.526Z,93.89
2017-11-01T03:57:14.553Z,93.7
2017-11-01T03:58:24.234Z,93.7
2017-11-01T03:59:33.906Z,94.37
2017-11-01T04:00:43.593Z,94.08
2017-11-01T04:01:53.277Z,93.98
2017-11-01T04:03:03.623Z,94.93
2017-11-01T04:04:13.634Z,94.46
2017-11-01T04:05:23.978Z,94.56
2017-11-01T04:06:32.985Z,93.98
2017-11-01T04:07:42.991Z,93.89
2017-11-01T04:08:52.677Z,94.65
2017-11-01T04:10:02.019Z,94.46
2017-11-01T04:11:11.701Z,94.56
2017-11-01T04:12:21.714Z,94.46
2017-11-01T04:13:31.460Z,94.74
2017-11-01T04:14:41.811Z,94.65
2017-11-01T04:15:52.163Z,94.37
2017-11-01T04:17:02.180Z,94.56
2017-11-01T04:18:11.181Z,94.93
2017-11-01T04:19:20.857Z,94.93
2017-11-01T04:20:30.546Z,94.93
2017-11-01T04:21:40.891Z,94.22
2017-11-01T04:22:50.229Z,94.22
2017-11-01T04:24:00.242Z,94.74
2017-11-01T04:25:09.587Z,94.56
2017-11-01T04:26:19.610Z,94.37
2017-11-01T04:27:29.303Z,94.17
2017-11-01T04:28:38.978Z,94.37
2017-11-01T04:29:48.323Z,94.56
2017-11-01T04:30:58.012Z,94.27
2017-11-01T04:32:07.687Z,94.84
2017-11-01T04:33:17.705Z,94.84
2017-11-01T04:34:27.766Z,95.03
2017-11-01T04:35:38.162Z,94.84
2017-11-01T04:36:48.166Z,94.46
2017-11-01T04:37:58.184Z,95.03
2017-11-01T04:39:08.527Z,94.74
2017-11-01T04:40:17.866Z,95.03
2017-11-01T04:41:28.207Z,94.89
2017-11-01T04:42:37.545Z,94.93
2017-11-01T04:43:47.563Z,95.08
2017-11-01T04:44:57.581Z,95.08
2017-11-01T04:46:06.927Z,94.6
2017-11-01T04:47:16.608Z,94.6
2017-11-01T04:48:25.946Z,95.08
2017-11-01T04:49:35.957Z,94.7
2017-11-01T04:50:45.990Z,94.41
2017-11-01T04:51:55.672Z,94.7
2017-11-01T04:53:05.681Z,94.41
2017-11-01T04:54:15.690Z,93.84
2017-11-01T04:55:26.048Z,94.03
2017-11-01T04:56:36.072Z,94.51
2017-11-01T04:57:46.108Z,95.08
2017-11-01T04:58:56.116Z,94.98
2017-11-01T05:00:06.470Z,93.93
2017-11-01T05:01:16.495Z,94.79
2017-11-01T05:02:26.507Z,94.79
2017-11-01T05:03:36.867Z,94.7
2017-11-01T05:04:46.550Z,94.51
2017-11-01T05:05:56.566Z,94.89
2017-11-01T05:07:06.925Z,94.79
2017-11-01T05:08:16.967Z,94.51
2017-11-01T05:09:26.983Z,94.51
2017-11-01T05:10:37.367Z,94.41
2017-11-01T05:11:47.036Z,94.6
2017-11-01T05:12:57.458Z,94.51
2017-11-01T05:14:07.469Z,94.6
2017-11-01T05:15:17.500Z,94.41
2017-11-01T05:16:27.524Z,94.03
2017-11-01T05:17:37.941Z,94.7
2017-11-01T05:18:47.969Z,94.22
2017-11-01T05:19:58.037Z,94.03
2017-11-01T05:21:08.401Z,95.17
2017-11-01T05:22:17.742Z,94.89
2017-11-01T05:23:27.800Z,94.51
2017-11-01T05:24:37.813Z,95.08
2017-11-01T05:25:48.162Z,95.08
2017-11-01T05:26:58.508Z,94.79
2017-11-01T05:28:08.521Z,94.7
2017-11-01T05:29:17.868Z,94.89
2017-11-01T05:30:27.885Z,94.7
2017-11-01T05:31:37.896Z,95.75
2017-11-01T05:32:47.911Z,95.46
2017-11-01T05:33:57.268Z,95.27
2017-11-01T05:35:06.951Z,95.46
2017-11-01T05:36:16.628Z,95.46
2017-11-01T05:37:26.639Z,95.46
2017-11-01T05:38:36.990Z,95.46
2017-11-01T05:39:47.010Z,95.65
2017-11-01T05:40:56.688Z,95.36
2017-11-01T05:42:06.369Z,95.56
2017-11-01T05:43:16.048Z,95.46
2017-11-01T05:44:25.729Z,95.94
2017-11-01T05:45:35.404Z,95.84
2017-11-01T05:46:45.410Z,96.12
2017-11-01T05:47:55.772Z,96.36
2017-11-01T05:49:04.784Z,96.46
2017-11-01T05:50:15.139Z,96.46
2017-11-01T05:51:24.828Z,97.03
2017-11-01T05:52:34.841Z,96.65
2017-11-01T05:53:45.184Z,96.46
2017-11-01T05:54:55.196Z,97.22
2017-11-01T05:56:04.873Z,97.13
2017-11-01T05:57:14.879Z,97.03
2017-11-01T05:58:24.223Z,97.13
2017-11-01T05:59:33.564Z,97.31
2017-11-01T06:00:43.911Z,97.03
2017-11-01T06:01:54.259Z,97.03
2017-11-01T06:03:04.609Z,96.55
2017-11-01T06:04:14.629Z,97.31
2017-11-01T06:05:24.652Z,96.84
2017-11-01T06:06:34.660Z,96.84
2017-11-01T06:07:44.678Z,97.13
2017-11-01T06:08:55.042Z,97.31
2017-11-01T06:10:05.053Z,97.13
2017-11-01T06:11:14.726Z,97.13
2017-11-01T06:12:24.402Z,97.13
2017-11-01T06:13:34.080Z,97.17
2017-11-01T06:14:44.429Z,96.98
2017-11-01T06:15:54.104Z,97.13
2017-11-01T06:17:04.487Z,97.36
2017-11-01T06:18:14.229Z,97.27
2017-11-01T06:19:24.268Z,97.36
2017-11-01T06:20:34.279Z,97.17
2017-11-01T06:21:44.011Z,97.46
2017-11-01T06:22:54.473Z,96.98
2017-11-01T06:24:04.571Z,97.36
2017-11-01T06:25:13.924Z,96.51
2017-11-01T06:26:24.297Z,96.22
2017-11-01T06:27:33.324Z,96.32
2017-11-01T06:28:42.997Z,96.6
2017-11-01T06:29:53.356Z,96.51
2017-11-01T06:31:03.031Z,96.41
2017-11-01T06:32:12.717Z,96.32
2017-11-01T06:33:22.728Z,96.98
2017-11-01T06:34:32.786Z,96.89
2017-11-01T06:35:42.463Z,97.08
2017-11-01T06:36:52.823Z,96.6
2017-11-01T06:38:01.495Z,96.6
2017-11-01T06:39:11.849Z,96.51
2017-11-01T06:40:21.524Z,96.41
2017-11-01T06:41:31.531Z,95.75
2017-11-01T06:42:41.891Z,96.12
2017-11-01T06:43:51.280Z,95.46
2017-11-01T06:45:01.680Z,95.65
2017-11-01T06:46:11.359Z,95.84
2017-11-01T06:47:21.370Z,95.65
2017-11-01T06:48:31.721Z,95.75
2017-11-01T06:49:41.404Z,95.75
2017-11-01T06:50:51.757Z,96.03
2017-11-01T06:52:02.102Z,95.56
2017-11-01T06:53:12.513Z,95.75
2017-11-01T06:54:22.186Z,95.36
2017-11-01T06:55:31.865Z,95.65
2017-11-01T06:56:41.929Z,96.12
2017-11-01T06:57:51.612Z,95.94
2017-11-01T06:59:01.974Z,96.12
2017-11-01T07:00:12.404Z,95.65
2017-11-01T07:01:21.777Z,95.27
2017-11-01T07:02:31.793Z,95.46
2017-11-01T07:03:45.345Z,95.56
2017-11-01T07:04:55.431Z,95.46
2017-11-01T07:06:05.603Z,95.56
2017-11-01T07:07:15.282Z,95.17
2017-11-01T07:08:24.994Z,95.46
2017-11-01T07:09:34.756Z,95.27
2017-11-01T07:10:44.163Z,94.89
2017-11-01T07:11:54.185Z,95.46
2017-11-01T07:13:03.896Z,95.46
2017-11-01T07:14:13.934Z,95.27
2017-11-01T07:15:24.301Z,94.41
2017-11-01T07:16:34.659Z,94.51
2017-11-01T07:17:45.005Z,94.6
2017-11-01T07:18:54.358Z,94.32
2017-11-01T07:20:04.372Z,93.84
2017-11-01T07:21:14.719Z,93.65
2017-11-01T07:22:24.729Z,93.93
2017-11-01T07:23:34.417Z,93.93
2017-11-01T07:24:44.431Z,94.03
2017-11-01T07:25:54.774Z,94.13
2017-11-01T07:27:04.787Z,93.74
2017-11-01T07:28:14.809Z,93.74
2017-11-01T07:29:24.494Z,93.65
2017-11-01T07:30:34.231Z,93.84
2017-11-01T07:31:44.247Z,93.08
2017-11-01T07:32:54.265Z,93.17
2017-11-01T07:34:04.275Z,93.27
2017-11-01T07:35:13.952Z,93.37
2017-11-01T07:36:23.300Z,92.74
2017-11-01T07:37:32.981Z,93.37
2017-11-01T07:38:43.003Z,92.79
2017-11-01T07:39:52.007Z,92.6
2017-11-01T07:41:02.352Z,92.46
2017-11-01T07:42:12.056Z,92.36
2017-11-01T07:43:21.737Z,92.55
2017-11-01T07:44:31.754Z,92.08
2017-11-01T07:45:41.448Z,92.27
2017-11-01T07:46:51.150Z,92.17
2017-11-01T07:48:00.490Z,91.88
2017-11-01T07:49:10.881Z,91.98
2017-11-01T07:50:20.561Z,92.27
2017-11-01T07:51:30.569Z,92.46
2017-11-01T07:52:40.586Z,92.27
2017-11-01T07:53:50.294Z,92.55
2017-11-01T07:54:59.971Z,92.55
2017-11-01T07:56:09.989Z,92.65
2017-11-01T07:57:20.069Z,92.36
2017-11-01T07:58:30.418Z,92.27
2017-11-01T07:59:40.108Z,92.08
2017-11-01T08:00:49.448Z,92.55
2017-11-01T08:01:59.468Z,91.88
2017-11-01T08:03:08.475Z,91.88
2017-11-01T08:04:18.486Z,91.41
2017-11-01T08:05:28.516Z,90.74
2017-11-01T08:06:38.863Z,90.36
2017-11-01T08:07:48.548Z,90.26
2017-11-01T08:08:58.570Z,90.64
2017-11-01T08:10:08.588Z,90.5
2017-11-01T08:11:18.281Z,90.26
2017-11-01T08:12:27.975Z,90.08
2017-11-01T08:13:38.349Z,89.93
2017-11-01T08:14:48.026Z,88.5
2017-11-01T08:15:58.041Z,89.07
2017-11-01T08:17:07.728Z,88.88
2017-11-01T08:18:17.419Z,88.78
2017-11-01T08:19:27.098Z,88.69
2017-11-01T08:20:36.797Z,88.78
2017-11-01T08:21:46.812Z,88.69
2017-11-01T08:22:55.820Z,88.31
2017-11-01T08:24:05.558Z,87.74
2017-11-01T08:25:15.583Z,88.59
2017-11-01T08:26:24.589Z,88.21
2017-11-01T08:27:34.673Z,88.69
2017-11-01T08:28:44.367Z,88.78
2017-11-01T08:29:54.112Z,88.98
2017-11-01T08:31:03.813Z,88.88
2017-11-01T08:32:12.820Z,88.88
2017-11-01T08:33:22.850Z,88.98
2017-11-01T08:34:32.889Z,88.5
2017-11-01T08:35:42.230Z,88.5
2017-11-01T08:36:52.256Z,88.31
2017-11-01T08:38:01.964Z,87.74
2017-11-01T08:39:11.724Z,88.31
2017-11-01T08:40:22.081Z,88.59
2017-11-01T08:41:31.761Z,87.83
2017-11-01T08:42:41.799Z,88.59
2017-11-01T08:43:51.924Z,87.64
2017-11-01T08:45:02.373Z,87.64
2017-11-01T08:46:12.051Z,87.54
2017-11-01T08:47:22.065Z,87.26
2017-11-01T08:48:31.755Z,87.49
2017-11-01T08:49:41.445Z,87.21
2017-11-01T08:50:51.457Z,86.63
2017-11-01T08:52:01.476Z,86.54
2017-11-01T08:53:11.162Z,86.63
2017-11-01T08:54:21.517Z,85.97
2017-11-01T08:55:31.303Z,85.58
2017-11-01T08:56:41.085Z,85.68
2017-11-01T08:57:50.892Z,86.16
2017-11-01T08:59:00.987Z,86.25
2017-11-01T09:00:11.194Z,87.07
2017-11-01T09:01:21.075Z,87.93
2017-11-01T09:02:30.517Z,87.45
2017-11-01T09:03:40.241Z,87.74
2017-11-01T09:04:50.445Z,87.74
2017-11-01T09:05:59.949Z,87.4
2017-11-01T09:07:10.752Z,87.21
2017-11-01T09:08:20.623Z,87.35
2017-11-01T09:09:30.864Z,87.93
2017-11-01T09:10:41.812Z,87.74
2017-11-01T09:11:52.288Z,87.45
2017-11-01T09:13:02.397Z,87.45
2017-11-01T09:14:12.031Z,87.26
2017-11-01T09:15:22.446Z,87.45
2017-11-01T09:16:32.760Z,87.35
2017-11-01T09:17:42.188Z,87.26
2017-11-01T09:18:51.991Z,87.74
2017-11-01T09:20:01.764Z,87.93
2017-11-01T09:21:11.888Z,87.35
2017-11-01T09:22:21.465Z,87.4
2017-11-01T09:23:31.547Z,86.98
2017-11-01T09:24:40.644Z,87.4
2017-11-01T09:25:50.811Z,87.07
2017-11-01T09:27:00.921Z,87.83
2017-11-01T09:28:10.603Z,87.11
2017-11-01T09:29:20.027Z,86.82
2017-11-01T09:30:29.399Z,86.63
2017-11-01T09:31:39.790Z,86.73
2017-11-01T09:32:50.189Z,87.54
2017-11-01T09:33:59.948Z,87.54
2017-11-01T09:35:09.634Z,87.3
2017-11-01T09:36:19.661Z,86.16
2017-11-01T09:37:29.703Z,85.77
2017-11-01T09:38:40.145Z,86.16
2017-11-01T09:39:49.864Z,85.58
2017-11-01T09:40:59.893Z,84.48
2017-11-01T09:42:09.689Z,84.29
2017-11-01T09:43:20.092Z,83.72
2017-11-01T09:44:30.488Z,83.62
2017-11-01T09:45:40.528Z,83.53
2017-11-01T09:46:49.928Z,83.72
2017-11-01T09:47:59.341Z,83.14
2017-11-01T09:49:09.719Z,83.43
2017-11-01T09:50:19.495Z,82.86
2017-11-01T09:51:29.249Z,82.32
2017-11-01T09:52:39.363Z,82.52
2017-11-01T09:53:49.851Z,81.56
2017-11-01T09:55:00.053Z,81.56
2017-11-01T09:56:09.768Z,81.09
2017-11-01T09:57:19.211Z,80.61
2017-11-01T09:58:28.751Z,80.7
2017-11-01T09:59:37.893Z,81.27
2017-11-01T10:00:47.645Z,81.37
2017-11-01T10:01:57.815Z,81.81
2017-11-01T10:03:07.633Z,81.71
2017-11-01T10:04:17.753Z,81.71
2017-11-01T10:05:28.299Z,82.57
2017-11-01T10:06:38.637Z,82.76
2017-11-01T10:07:48.691Z,82.42
2017-11-01T10:08:58.769Z,82.71
2017-11-01T10:10:08.385Z,81.27
2017-11-01T10:11:18.181Z,81.37
2017-11-01T10:12:28.052Z,80.93
2017-11-01T10:13:37.950Z,80.61
2017-11-01T10:14:47.654Z,81.09
2017-11-01T10:15:57.115Z,81.22
2017-11-01T10:17:07.041Z,80.36
2017-11-01T10:18:17.168Z,79.5
2017-11-01T10:19:26.932Z,80.27
2017-11-01T10:20:37.513Z,79.6
2017-11-01T10:21:47.597Z,79.79
2017-11-01T10:22:58.074Z,79.5
2017-11-01T10:24:07.625Z,78.83
2017-11-01T10:25:17.139Z,79.36
2017-11-01T10:26:27.605Z,80.22
2017-11-01T10:27:36.819Z,80.51
2017-11-01T10:28:46.274Z,80.9
2017-11-01T10:29:56.343Z,80.9
2017-11-01T10:31:06.606Z,80.8
2017-11-01T10:32:16.385Z,80.13
2017-11-01T10:33:26.500Z,81.09
2017-11-01T10:34:36.666Z,81.37
2017-11-01T10:35:46.435Z,80.9
2017-11-01T10:36:56.846Z,80.61
2017-11-01T10:38:06.207Z,80.7
2017-11-01T10:39:15.396Z,80.9
2017-11-01T10:40:25.472Z,80.41
2017-11-01T10:41:35.520Z,80.9
2017-11-01T10:42:46.034Z,80.22
2017-11-01T10:43:56.155Z,80.32
2017-11-01T10:45:05.851Z,79.31
2017-11-01T10:46:15.538Z,79.5
2017-11-01T10:47:25.612Z,78.97
2017-11-01T10:48:36.046Z,77.34
2017-11-01T10:49:46.109Z,76.67
2017-11-01T10:50:56.144Z,76.57
2017-11-01T10:52:05.562Z,75.71
2017-11-01T10:53:15.344Z,76.29
2017-11-01T10:54:25.419Z,75.56
2017-11-01T10:55:35.542Z,74.95
2017-11-01T10:56:45.733Z,75.81
2017-11-01T10:57:55.833Z,75.81
2017-11-01T10:59:05.319Z,75.52
2017-11-01T11:00:15.583Z,75.81
2017-11-01T11:01:25.710Z,75.91
2017-11-01T11:02:36.169Z,76.29
2017-11-01T11:03:46.068Z,76
2017-11-01T11:04:56.193Z,76.48
2017-11-01T11:06:06.716Z,77.3
2017-11-01T11:07:16.618Z,77.87
2017-11-01T11:08:26.115Z,78.36
2017-11-01T11:09:35.608Z,76.57
2017-11-01T11:10:45.581Z,76
2017-11-01T11:11:55.782Z,75.43
2017-11-01T11:13:05.610Z,75.71
2017-11-01T11:14:15.881Z,75.81
2017-11-01T11:15:25.704Z,76.96
2017-11-01T11:16:35.743Z,76.1
2017-11-01T11:17:45.266Z,75.56
2017-11-01T11:18:54.756Z,76.29
2017-11-01T11:20:04.872Z,76
2017-11-01T11:21:14.702Z,76
2017-11-01T11:22:24.517Z,76.48
2017-11-01T11:23:34.317Z,77.15
2017-11-01T11:24:43.334Z,77.06
2017-11-01T11:25:53.238Z,77.11
2017-11-01T11:27:03.286Z,77.21
2017-11-01T11:28:13.783Z,77.59
2017-11-01T11:29:23.697Z,78.55
2017-11-01T11:30:33.795Z,77.97
2017-11-01T11:31:43.197Z,78.26
2017-11-01T11:32:52.769Z,78.83
2017-11-01T11:34:02.556Z,78.07
2017-11-01T11:35:12.277Z,77.97
2017-11-01T11:36:22.452Z,78.07
2017-11-01T11:37:32.305Z,77.15
2017-11-01T11:38:42.131Z,77.5
2017-11-01T11:39:52.442Z,77.44
2017-11-01T11:41:02.696Z,78.45
2017-11-01T11:42:12.805Z,76.96
2017-11-01T11:43:22.303Z,76.86
2017-11-01T11:44:32.524Z,76.86
2017-11-01T11:45:42.627Z,76.86
2017-11-01T11:46:52.426Z,77.87
2017-11-01T11:48:02.694Z,78.16
2017-11-01T11:49:12.521Z,78.64
2017-11-01T11:50:21.924Z,78.93
2017-11-01T11:51:32.168Z,79.12
2017-11-01T11:52:42.683Z,79.46
2017-11-01T11:53:52.387Z,79.65
2017-11-01T11:55:02.120Z,79.65
2017-11-01T11:56:11.903Z,79.94
2017-11-01T11:57:21.995Z,79.98
2017-11-01T11:58:31.004Z,79.12
2017-11-01T11:59:41.055Z,79.31
2017-11-01T12:00:50.503Z,78.26
2017-11-01T12:02:00.235Z,77.97
2017-11-01T12:03:09.610Z,77.3
2017-11-01T12:04:19.459Z,77.5
2017-11-01T12:05:29.327Z,77.5
2017-11-01T12:06:39.119Z,77.5
2017-11-01T12:07:49.146Z,77.21
2017-11-01T12:08:58.501Z,77.4
2017-11-01T12:10:08.573Z,77.3
2017-11-01T12:11:18.333Z,77.01
2017-11-01T12:12:27.443Z,77.01
2017-11-01T12:13:37.463Z,77.01
2017-11-01T12:14:47.155Z,76
2017-11-01T12:15:57.529Z,77.01
2017-11-01T12:17:06.944Z,77.44
2017-11-01T12:18:17.348Z,77.15
2017-11-01T12:19:27.758Z,75.34
2017-11-01T12:20:38.106Z,75.05
2017-11-01T12:21:47.137Z,76
2017-11-01T12:22:55.806Z,75.91
2017-11-01T12:24:06.197Z,76.42
2017-11-01T12:25:16.048Z,76.04
2017-11-01T12:26:26.459Z,74.41
2017-11-01T12:27:36.509Z,74.99
2017-11-01T12:28:46.716Z,74.51
2017-11-01T12:29:57.090Z,74.04
2017-11-01T12:31:06.161Z,74.61
2017-11-01T12:32:15.851Z,72.34
2017-11-01T12:33:26.536Z,71.77
2017-11-01T12:34:36.794Z,72.6
2017-11-01T12:35:46.911Z,72.22
2017-11-01T12:36:57.058Z,73.17
2017-11-01T12:38:06.599Z,73.08
2017-11-01T12:39:17.096Z,72.12
2017-11-01T12:40:26.210Z,73.55
2017-11-01T12:41:36.060Z,73.08
2017-11-01T12:42:46.604Z,73.46
2017-11-01T12:43:56.889Z,72.31
2017-11-01T12:45:07.017Z,72.5
2017-11-01T12:46:16.711Z,72.12
2017-11-01T12:47:26.072Z,73.46
2017-11-01T12:48:35.101Z,73.46
2017-11-01T12:49:44.784Z,71.83
2017-11-01T12:50:54.870Z,72.98
2017-11-01T12:52:05.252Z,71.73
2017-11-01T12:53:14.593Z,73.08
2017-11-01T12:54:24.951Z,72.41
2017-11-01T12:55:33.961Z,73.84
2017-11-01T12:56:43.992Z,73.65
2017-11-01T12:57:54.008Z,73.27
2017-11-01T12:59:04.020Z,71.11
2017-11-01T13:00:13.711Z,71.58
2017-11-01T13:01:23.401Z,71.77
2017-11-01T13:02:33.084Z,70.72
2017-11-01T13:03:43.106Z,71.2
2017-11-01T13:04:53.144Z,71.2
2017-11-01T13:06:03.165Z,73.02
2017-11-01T13:07:13.224Z,72.29
2017-11-01T13:08:22.918Z,71.04
2017-11-01T13:09:31.938Z,70.28
2017-11-01T13:10:42.042Z,70.28
2017-11-01T13:11:51.500Z,69.23
2017-11-01T13:13:01.528Z,69.32
2017-11-01T13:14:11.207Z,67.79
2017-11-01T13:15:21.246Z,68.17
2017-11-01T13:16:31.010Z,67.88
2017-11-01T13:17:41.046Z,67.88
2017-11-01T13:18:51.403Z,68.94
2017-11-01T13:20:00.757Z,68.27
2017-11-01T13:21:10.795Z,67.85
2017-11-01T13:22:20.186Z,69.03
2017-11-01T13:23:29.901Z,70.28
2017-11-01T13:24:39.588Z,69.8
2017-11-01T13:25:49.618Z,69.99
2017-11-01T13:26:59.645Z,68.36
2017-11-01T13:28:08.675Z,68.36
2017-11-01T13:29:18.700Z,68.01
2017-11-01T13:30:29.061Z,66.86
2017-11-01T13:31:38.085Z,66.09
2017-11-01T13:32:47.446Z,65.81
2017-11-01T13:33:57.142Z,65.81
2017-11-01T13:35:07.160Z,65.71
2017-11-01T13:36:17.513Z,66.96
2017-11-01T13:37:27.528Z,66.09
2017-11-01T13:38:37.205Z,65.33
2017-11-01T13:39:46.219Z,65.81
2017-11-01T13:40:55.904Z,66.77
2017-11-01T13:42:05.251Z,65.81
2017-11-01T13:43:14.929Z,66.19
2017-11-01T13:44:25.286Z,66.77
2017-11-01T13:45:34.966Z,64.95
2017-11-01T13:46:45.354Z,66.09
2017-11-01T13:47:55.372Z,67.91
2017-11-01T13:49:05.394Z,65.52
2017-11-01T13:50:15.118Z,66.38
2017-11-01T13:51:25.121Z,65.81
2017-11-01T13:52:34.812Z,64.56
2017-11-01T13:53:44.169Z,65.14
2017-11-01T13:54:53.191Z,66.09
2017-11-01T13:56:02.897Z,65.52
2017-11-01T13:57:11.908Z,65.42
2017-11-01T13:58:21.967Z,65.71
2017-11-01T13:59:31.648Z,66.19
2017-11-01T14:00:41.664Z,65.71
2017-11-01T14:01:51.344Z,66.86
2017-11-01T14:03:01.366Z,66.67
2017-11-01T14:04:11.049Z,67.15
2017-11-01T14:05:21.116Z,65.91
2017-11-01T14:06:30.818Z,66.29
2017-11-01T14:07:40.545Z,65.52
2017-11-01T14:08:50.258Z,65.46
2017-11-01T14:10:00.397Z,65.65
2017-11-01T14:11:09.410Z,64.98
2017-11-01T14:12:19.086Z,65.36
2017-11-01T14:13:28.522Z,64.31
2017-11-01T14:14:37.890Z,64.59
2017-11-01T14:15:48.333Z,64.66
2017-11-01T14:16:58.538Z,65.05
2017-11-01T14:18:08.894Z,65.71
2017-11-01T14:19:18.939Z,66.96
2017-11-01T14:20:29.317Z,65.91
2017-11-01T14:21:39.047Z,65.81
2017-11-01T14:22:49.067Z,66.48
2017-11-01T14:23:59.099Z,66
2017-11-01T14:25:09.348Z,65.71
2017-11-01T14:26:19.032Z,66.58
2017-11-01T14:27:28.734Z,66.19
2017-11-01T14:28:38.420Z,66.19
2017-11-01T14:29:48.119Z,66.38
2017-11-01T14:30:58.174Z,66.54
2017-11-01T14:32:08.268Z,67.11
2017-11-01T14:33:18.640Z,67.98
2017-11-01T14:34:28.323Z,67.79
2017-11-01T14:35:38.000Z,68.27
2017-11-01T14:36:47.013Z,68.17
2017-11-01T14:37:56.359Z,68.36
2017-11-01T14:39:06.073Z,68.46
2017-11-01T14:40:15.763Z,68.07
2017-11-01T14:41:26.155Z,68.27
2017-11-01T14:42:35.910Z,67.6
2017-11-01T14:43:45.645Z,68.07
2017-11-01T14:44:55.766Z,67.79
2017-11-01T14:46:05.463Z,67.41
2017-11-01T14:47:14.824Z,67.79
2017-11-01T14:48:24.531Z,67.31
2017-11-01T14:49:34.331Z,67.98
2017-11-01T14:50:44.736Z,67.98
2017-11-01T14:51:54.577Z,68.36
2017-11-01T14:53:05.013Z,67.98
2017-11-01T14:54:13.695Z,68.62
2017-11-01T14:55:23.388Z,69.09
2017-11-01T14:56:33.073Z,69.38
2017-11-01T14:57:43.451Z,69.38
2017-11-01T14:58:53.199Z,69.57
2017-11-01T15:00:02.554Z,69.48
2017-11-01T15:01:12.604Z,69.48
2017-11-01T15:02:21.960Z,70.05
2017-11-01T15:03:31.986Z,70.62